Portada
METAR-TAF:

METAR-TAF

Aeroports :

Holguín, Cuba

latitud: 20-47N, longitud: 076-19W, altitud: 106 m

Observació

L'informe es va fer fa 44 minuts, a les 13:50 UTC
Vent 9 kt del Nord-Est
Temperatura 25°C
Humitat 79%
Pressió 1018 hPa
Visibilitat: 9000 m
Núvols disperses a una alçada de 3300 ft

METAR: MUHG 261350Z 05009KT 9000 SCT033 25/21 Q1018

Hora: 09:34 (14:34 UTC)

Pronòstic

L'informe es va fer fa 3 hores i 34 minuts, a les 11:00 UTC
Pronòstic vàlid del 26 a les 12 UTC al 27 a les 12 UTC
Vent 11 kt del Est/Nord-Est
Visibilitat: 9000 m
Núvols disperses a una alçada de 3000 ft
Temporalment
l' 26 a les 18 UTC al 26 a les 23 UTC
Núvols disperses a una alçada de 1800 ft, Cumulonimbus.
Cel ennuvolat a una alçada de 3000 ft
Evolucionant progressivament
l' 27 a les 01 UTC al 27 a les 03 UTC
Vent 3 kt amb direcció variable
Escasses núvols a una alçada de 6000 ft

TAF: MUHG 261100Z 2612/2712 06011KT 9000 SCT030 TEMPO 2618/2623 SCT018CB BKN030 BECMG 2701/2703 VRB03KT FEW060

Observacions i pronòstics meteorològics de més de 4000 aeroports (METAR i TAF).

Les estacions disponibles són els punts grocs i vermells al mapa.

Posi el ratolí al punt desitjat per veure el nom de l'estació.

Feu clic per veure les observacions i els pronòstics meteorològics.

Per canviar el mapa: feu clic els botons verds amb una creu de color negre per apropar; al botó verd amb un guió per allunyar la imatge; o en les fletxes verdes per a mapes adjacents.


METAR-TAF: